ISR174 LYTV-LLBG
Flight info
| Callsign | ISR174 |
|---|---|
| Flight time | N/A |
| Altitude | 39000 |
| Route | LASTI L607 PETAK DCT BITLA DCT SIGFO DCT AKINA DCT VANZA DCT PIKOG L609 ZUKKO |
| Aircraft | A320/M-SDE2FGHIJ1LORVWY/S |
Departure
| Time | 2026-05-06 12:00 |
|---|---|
| Airport | Tivat Airport (LYTV) |
Arrival
| Time | N/A |
|---|---|
| Airport | Ben Gurion International Airport (LLBG) |
| Time | Latitude | Longitude | Altitude | Speed | Heading |
|---|---|---|---|---|---|
| 2026-05-06 11:36 | 42.41194 | 18.71707 | 9 ft | 0 kts | 180° |
| 2026-05-06 11:41 | 42.41195 | 18.71707 | 9 ft | 0 kts | 180° |
| 2026-05-06 11:56 | 42.41177 | 18.71707 | 8 ft | 8 kts | 179° |
| 2026-05-06 11:56 | 42.41100 | 18.71756 | 6 ft | 16 kts | 138° |
| 2026-05-06 11:56 | 42.41021 | 18.71849 | 8 ft | 10 kts | 141° |
| 2026-05-06 11:56 | 42.40961 | 18.71803 | 6 ft | 13 kts | 225° |
| 2026-05-06 11:57 | 42.40872 | 18.71849 | 4 ft | 23 kts | 138° |
| 2026-05-06 11:57 | 42.40705 | 18.72044 | 2 ft | 39 kts | 139° |
| 2026-05-06 11:57 | 42.40494 | 18.72291 | 3 ft | 40 kts | 139° |
| 2026-05-06 11:57 | 42.40282 | 18.72534 | 6 ft | 40 kts | 139° |
| 2026-05-06 11:58 | 42.40071 | 18.72786 | 2 ft | 41 kts | 139° |
| 2026-05-06 11:58 | 42.39851 | 18.73046 | 0 ft | 43 kts | 139° |
| 2026-05-06 11:58 | 42.39692 | 18.73235 | 3 ft | 20 kts | 138° |
| 2026-05-06 11:58 | 42.39613 | 18.73283 | 3 ft | 9 kts | 107° |
| 2026-05-06 11:59 | 42.39640 | 18.73292 | 3 ft | 6 kts | 320° |
| 2026-05-06 11:59 | 42.39703 | 18.73220 | 3 ft | 33 kts | 319° |
| 2026-05-06 11:59 | 42.40083 | 18.72775 | 3 ft | 107 kts | 319° |
| 2026-05-06 11:59 | 42.40794 | 18.71930 | 21 ft | 160 kts | 317° |
| 2026-05-06 12:00 | 42.41616 | 18.70925 | 636 ft | 159 kts | 317° |
| 2026-05-06 12:00 | 42.42128 | 18.69618 | 1234 ft | 163 kts | 270° |
| 2026-05-06 12:00 | 42.41857 | 18.68169 | 1798 ft | 158 kts | 227° |
| 2026-05-06 12:00 | 42.41071 | 18.67196 | 2440 ft | 153 kts | 211° |
| 2026-05-06 12:01 | 42.40241 | 18.66340 | 3002 ft | 151 kts | 209° |
| 2026-05-06 12:01 | 42.39410 | 18.65460 | 3498 ft | 155 kts | 210° |
| 2026-05-06 12:01 | 42.38502 | 18.64503 | 3816 ft | 176 kts | 213° |
| 2026-05-06 12:01 | 42.37473 | 18.63413 | 4116 ft | 198 kts | 213° |
| 2026-05-06 12:02 | 42.36321 | 18.62199 | 4462 ft | 222 kts | 211° |
| 2026-05-06 12:02 | 42.34841 | 18.61415 | 4920 ft | 240 kts | 183° |
| 2026-05-06 12:02 | 42.33235 | 18.61851 | 5686 ft | 251 kts | 153° |
| 2026-05-06 12:02 | 42.31787 | 18.63338 | 6593 ft | 260 kts | 143° |
| 2026-05-06 12:03 | 42.30396 | 18.64945 | 7415 ft | 267 kts | 142° |
| 2026-05-06 12:03 | 42.28980 | 18.66600 | 8267 ft | 273 kts | 142° |
| 2026-05-06 12:03 | 42.27532 | 18.68295 | 9130 ft | 279 kts | 142° |
| 2026-05-06 12:03 | 42.26069 | 18.70006 | 9976 ft | 285 kts | 142° |
| 2026-05-06 12:04 | 42.24554 | 18.71768 | 10732 ft | 290 kts | 142° |
| 2026-05-06 12:04 | 42.23007 | 18.73560 | 11501 ft | 295 kts | 142° |
| 2026-05-06 12:04 | 42.21436 | 18.75374 | 12277 ft | 299 kts | 143° |
| 2026-05-06 12:04 | 42.19841 | 18.77214 | 13039 ft | 304 kts | 142° |
| 2026-05-06 12:05 | 42.18222 | 18.79078 | 13798 ft | 308 kts | 142° |
| 2026-05-06 12:05 | 42.16578 | 18.80973 | 14471 ft | 313 kts | 142° |
| 2026-05-06 12:05 | 42.14909 | 18.82894 | 15117 ft | 318 kts | 142° |
| 2026-05-06 12:05 | 42.13233 | 18.84821 | 15753 ft | 324 kts | 142° |
| 2026-05-06 12:06 | 42.11507 | 18.86807 | 16390 ft | 329 kts | 142° |
| 2026-05-06 12:06 | 42.09757 | 18.88837 | 17023 ft | 335 kts | 141° |
| 2026-05-06 12:06 | 42.07991 | 18.91026 | 17218 ft | 356 kts | 139° |
| 2026-05-06 12:06 | 42.06166 | 18.93425 | 17356 ft | 377 kts | 137° |
| 2026-05-06 12:07 | 42.04280 | 18.95974 | 17691 ft | 390 kts | 137° |
| 2026-05-06 12:07 | 42.02359 | 18.98589 | 18251 ft | 396 kts | 137° |
| 2026-05-06 12:07 | 42.00407 | 19.01229 | 18811 ft | 400 kts | 137° |
| 2026-05-06 12:07 | 41.98422 | 19.03882 | 19389 ft | 404 kts | 138° |
| 2026-05-06 12:08 | 41.96438 | 19.06510 | 19978 ft | 408 kts | 138° |
| 2026-05-06 12:08 | 41.94396 | 19.09192 | 20580 ft | 412 kts | 138° |
| 2026-05-06 12:08 | 41.92333 | 19.11887 | 21149 ft | 416 kts | 139° |
| 2026-05-06 12:08 | 41.90246 | 19.14612 | 21691 ft | 421 kts | 138° |
| 2026-05-06 12:09 | 41.88142 | 19.17368 | 22237 ft | 425 kts | 138° |
| 2026-05-06 12:09 | 41.86023 | 19.20158 | 22775 ft | 429 kts | 138° |
| 2026-05-06 12:09 | 41.83891 | 19.22978 | 23302 ft | 433 kts | 138° |
| 2026-05-06 12:09 | 41.81737 | 19.25828 | 23785 ft | 436 kts | 138° |
| 2026-05-06 12:10 | 41.79569 | 19.28693 | 24231 ft | 440 kts | 138° |
| 2026-05-06 12:10 | 41.77555 | 19.31725 | 24674 ft | 445 kts | 129° |
| 2026-05-06 12:10 | 41.75872 | 19.35230 | 25109 ft | 450 kts | 121° |
| 2026-05-06 12:10 | 41.74332 | 19.38882 | 25553 ft | 452 kts | 121° |
| 2026-05-06 12:11 | 41.72780 | 19.42553 | 25983 ft | 454 kts | 121° |
| 2026-05-06 12:11 | 41.71216 | 19.46231 | 26410 ft | 456 kts | 121° |
| 2026-05-06 12:11 | 41.69634 | 19.49925 | 26823 ft | 458 kts | 122° |
| 2026-05-06 12:11 | 41.68044 | 19.53622 | 27237 ft | 460 kts | 122° |
| 2026-05-06 12:12 | 41.66441 | 19.57344 | 27647 ft | 463 kts | 122° |
| 2026-05-06 12:12 | 41.64854 | 19.61031 | 28059 ft | 465 kts | 122° |
| 2026-05-06 12:12 | 41.63239 | 19.64785 | 28477 ft | 467 kts | 122° |
| 2026-05-06 12:12 | 41.61615 | 19.68559 | 28893 ft | 469 kts | 122° |
| 2026-05-06 12:13 | 41.59985 | 19.72342 | 29293 ft | 471 kts | 122° |
| 2026-05-06 12:13 | 41.58344 | 19.76149 | 29698 ft | 474 kts | 122° |
| 2026-05-06 12:13 | 41.56695 | 19.79966 | 30095 ft | 476 kts | 122° |